Time;durP1;ratioP1;P1;durP2;ratioP2;P2;SDS_P1;SDS_P2;PMS_P1;PMS_P2;Temp;Humidity;BMP_temperature;BMP_pressure;BME280_temperature;BME280_humidity;BME280_pressure;Samples;Min_cycle;Max_cycle;Signal;HPM_P1;HPM_P2
2020/12/28 00:02:07;;;;;;;3.53;3.23;;;5.70;51.00;;;;;;5087591;28;20219;-67
2020/12/28 00:04:33;;;;;;;3.83;3.43;;;5.70;51.00;;;;;;5091443;28;20254;-67
2020/12/28 00:07:00;;;;;;;3.73;3.30;;;5.70;51.00;;;;;;5090012;28;20208;-67
2020/12/28 00:09:27;;;;;;;3.93;3.53;;;5.70;51.00;;;;;;5091519;28;20863;-67
2020/12/28 00:11:56;;;;;;;3.70;3.40;;;5.70;51.00;;;;;;5086845;28;20892;-66
2020/12/28 00:14:23;;;;;;;3.80;2.93;;;5.70;51.00;;;;;;5092967;28;20227;-65
2020/12/28 00:16:50;;;;;;;3.50;3.20;;;5.70;50.90;;;;;;5089185;28;20232;-67
2020/12/28 00:19:17;;;;;;;3.83;3.53;;;5.70;50.90;;;;;;5093963;28;20582;-69
2020/12/28 00:21:44;;;;;;;3.87;3.57;;;5.70;50.90;;;;;;5089389;28;20220;-67
2020/12/28 00:24:11;;;;;;;3.90;3.50;;;5.70;50.90;;;;;;5088385;28;20234;-68
2020/12/28 00:26:38;;;;;;;3.90;3.60;;;5.70;50.90;;;;;;5092924;28;20218;-66
2020/12/28 00:29:06;;;;;;;4.00;3.60;;;5.70;50.90;;;;;;5094283;28;20204;-67
2020/12/28 00:31:33;;;;;;;4.10;3.70;;;5.70;50.90;;;;;;5088750;28;20204;-66
2020/12/28 00:34:00;;;;;;;3.43;3.13;;;5.70;50.90;;;;;;5093191;28;20284;-66
2020/12/28 00:36:26;;;;;;;3.77;3.47;;;5.70;51.00;;;;;;5095655;28;20242;-67
2020/12/28 00:38:53;;;;;;;3.50;3.20;;;5.70;50.90;;;;;;5094599;28;20208;-67
2020/12/28 00:41:19;;;;;;;4.40;3.83;;;5.70;50.90;;;;;;5095774;28;20568;-66
2020/12/28 00:43:46;;;;;;;4.00;3.70;;;5.70;51.00;;;;;;5094635;28;20235;-67
2020/12/28 00:46:14;;;;;;;4.00;3.60;;;5.70;51.00;;;;;;5092470;28;20201;-67
2020/12/28 00:48:41;;;;;;;3.93;3.57;;;5.80;51.10;;;;;;5092803;28;20211;-67
2020/12/28 00:51:13;;;;;;;4.37;3.40;;;5.80;51.00;;;;;;5093546;28;20212;-67
2020/12/28 00:53:40;;;;;;;3.97;3.67;;;5.80;51.00;;;;;;5094753;28;20835;-68
2020/12/28 00:56:07;;;;;;;4.50;4.10;;;5.80;50.90;;;;;;5093418;28;20207;-66
2020/12/28 00:58:35;;;;;;;4.40;4.00;;;5.80;50.90;;;;;;5095328;28;20672;-67
2020/12/28 01:01:02;;;;;;;5.00;4.50;;;5.80;50.90;;;;;;5093705;28;20684;-67
2020/12/28 01:03:30;;;;;;;4.33;3.93;;;5.80;50.90;;;;;;5095032;28;20299;-67
2020/12/28 01:05:56;;;;;;;4.10;3.70;;;5.80;50.90;;;;;;5095236;28;20218;-67
2020/12/28 01:08:23;;;;;;;4.13;3.73;;;5.80;50.80;;;;;;5095524;28;20196;-68
2020/12/28 01:10:50;;;;;;;4.17;3.87;;;5.80;50.90;;;;;;5093675;28;20215;-67
2020/12/28 01:13:17;;;;;;;4.87;4.37;;;5.80;50.90;;;;;;5096026;28;20220;-67
2020/12/28 01:15:44;;;;;;;5.03;4.60;;;5.80;50.90;;;;;;5091792;28;20193;-67
2020/12/28 01:18:10;;;;;;;4.67;4.23;;;5.70;50.80;;;;;;5096467;28;20247;-67
2020/12/28 01:20:39;;;;;;;4.80;4.40;;;5.70;50.90;;;;;;5094075;28;20888;-66
2020/12/28 01:23:05;;;;;;;6.23;4.60;;;5.70;51.00;;;;;;5090937;28;20277;-67
2020/12/28 01:25:32;;;;;;;4.87;4.37;;;5.70;51.00;;;;;;5095042;28;20196;-66
2020/12/28 01:27:59;;;;;;;5.47;4.33;;;5.70;51.00;;;;;;5095566;28;20199;-67
2020/12/28 01:30:25;;;;;;;4.63;4.23;;;5.70;51.10;;;;;;5091086;28;20216;-66
2020/12/28 01:32:52;;;;;;;4.20;3.80;;;5.70;51.10;;;;;;5092170;28;20240;-67
2020/12/28 01:35:18;;;;;;;4.80;4.40;;;5.70;51.20;;;;;;5093825;28;20256;-68
2020/12/28 01:37:45;;;;;;;4.50;4.10;;;5.70;51.10;;;;;;5091399;28;20227;-67
2020/12/28 01:40:11;;;;;;;4.60;4.20;;;5.70;51.00;;;;;;5093342;28;20208;-67
2020/12/28 01:42:38;;;;;;;4.50;4.00;;;5.70;51.00;;;;;;5093835;28;20223;-66
2020/12/28 01:45:05;;;;;;;4.17;3.80;;;5.70;51.00;;;;;;5091731;28;20614;-67
2020/12/28 01:47:31;;;;;;;4.43;3.90;;;5.70;51.00;;;;;;5095504;28;20197;-66
2020/12/28 01:49:58;;;;;;;4.53;4.13;;;5.70;51.10;;;;;;5097209;28;20229;-66
2020/12/28 01:52:25;;;;;;;4.57;4.07;;;5.70;51.20;;;;;;5084701;28;20196;-67
2020/12/28 01:54:52;;;;;;;3.93;3.53;;;5.70;51.20;;;;;;5097898;28;20208;-67
2020/12/28 01:57:19;;;;;;;4.17;3.77;;;5.70;51.30;;;;;;5096477;28;20232;-67
2020/12/28 01:59:46;;;;;;;4.07;3.70;;;5.70;51.20;;;;;;5095242;28;20204;-69
2020/12/28 02:02:13;;;;;;;4.40;3.90;;;5.80;51.30;;;;;;5095317;27;20262;-67
2020/12/28 02:04:39;;;;;;;4.40;4.00;;;5.80;51.30;;;;;;5096573;28;20239;-66
2020/12/28 02:07:09;;;;;;;3.90;3.57;;;5.80;51.30;;;;;;5095128;28;20743;-67
2020/12/28 02:09:35;;;;;;;5.27;3.90;;;5.80;51.30;;;;;;5095362;28;20204;-68
2020/12/28 02:12:03;;;;;;;4.17;3.67;;;5.80;51.20;;;;;;5094156;28;20208;-66
2020/12/28 02:14:29;;;;;;;4.20;3.80;;;5.80;51.20;;;;;;5097463;28;20220;-67
2020/12/28 02:16:56;;;;;;;4.07;3.67;;;5.90;51.20;;;;;;5096677;28;20236;-67
2020/12/28 02:19:22;;;;;;;3.40;3.10;;;5.80;51.10;;;;;;5096576;28;20230;-67
2020/12/28 02:21:49;;;;;;;3.90;3.50;;;5.90;51.10;;;;;;5092424;28;20590;-68
2020/12/28 02:24:16;;;;;;;3.83;3.17;;;5.80;51.10;;;;;;5095931;28;20247;-68
2020/12/28 02:26:43;;;;;;;10.97;9.27;;;5.80;51.10;;;;;;5095209;28;20200;-66
2020/12/28 02:29:10;;;;;;;6.80;5.90;;;5.80;51.10;;;;;;5094729;28;20203;-66
2020/12/28 02:31:36;;;;;;;5.93;4.67;;;5.80;51.10;;;;;;5095013;28;20272;-66
2020/12/28 02:34:03;;;;;;;4.83;4.20;;;5.80;51.10;;;;;;5095589;28;20251;-66
2020/12/28 02:36:29;;;;;;;4.17;3.77;;;5.80;51.20;;;;;;5093677;28;20237;-67
2020/12/28 02:38:57;;;;;;;3.97;3.57;;;5.80;51.20;;;;;;5095538;28;20538;-65
2020/12/28 02:41:25;;;;;;;4.20;3.70;;;5.80;51.20;;;;;;5096310;28;20256;-66
2020/12/28 02:43:52;;;;;;;3.53;3.23;;;5.80;51.30;;;;;;5096099;28;20227;-65
2020/12/28 02:46:18;;;;;;;4.37;3.30;;;5.80;51.20;;;;;;5094411;28;20245;-66
2020/12/28 02:48:45;;;;;;;4.17;3.30;;;5.80;51.20;;;;;;5096386;28;20214;-67
2020/12/28 02:51:13;;;;;;;3.33;3.03;;;5.80;51.20;;;;;;5095089;28;20684;-68
2020/12/28 02:53:40;;;;;;;3.50;3.20;;;5.80;51.20;;;;;;5095615;28;20234;-67
2020/12/28 02:56:07;;;;;;;3.53;3.20;;;5.80;51.30;;;;;;5096405;28;20215;-68
2020/12/28 02:58:34;;;;;;;4.40;4.00;;;5.90;51.40;;;;;;5095866;28;20224;-66
2020/12/28 03:01:00;;;;;;;3.57;3.27;;;5.90;51.30;;;;;;5092881;28;20200;-68
2020/12/28 03:03:27;;;;;;;3.50;3.20;;;5.90;51.40;;;;;;5096068;28;20228;-67
2020/12/28 03:05:53;;;;;;;3.47;3.17;;;5.90;51.30;;;;;;5093241;28;20753;-67
2020/12/28 03:08:19;;;;;;;3.50;3.20;;;6.00;51.30;;;;;;5093184;28;20250;-66
2020/12/28 03:10:45;;;;;;;3.80;3.40;;;6.00;51.30;;;;;;5095657;28;20211;-67
2020/12/28 03:13:13;;;;;;;3.90;3.53;;;6.00;51.30;;;;;;5095976;28;20219;-66
2020/12/28 03:15:39;;;;;;;3.87;3.47;;;6.10;51.40;;;;;;5095003;28;20208;-67
2020/12/28 03:18:06;;;;;;;3.77;3.43;;;6.10;51.30;;;;;;5097475;28;20231;-67
2020/12/28 03:20:32;;;;;;;4.03;3.07;;;6.10;51.30;;;;;;5092803;28;20212;-67
2020/12/28 03:22:58;;;;;;;3.83;3.50;;;6.10;51.30;;;;;;5098516;28;20227;-67
2020/12/28 03:25:25;;;;;;;4.47;3.57;;;6.20;51.40;;;;;;5092200;28;20657;-67
2020/12/28 03:27:51;;;;;;;3.53;3.23;;;6.20;51.40;;;;;;5095432;28;20214;-66
2020/12/28 03:30:19;;;;;;;3.50;3.20;;;6.20;51.40;;;;;;5095062;28;20284;-67
2020/12/28 03:32:45;;;;;;;3.73;3.10;;;6.30;51.40;;;;;;5094404;28;20228;-67
2020/12/28 03:35:12;;;;;;;3.27;2.97;;;6.30;51.40;;;;;;5094111;28;20664;-66
2020/12/28 03:37:38;;;;;;;3.57;3.27;;;6.30;51.30;;;;;;5095723;28;20594;-66
2020/12/28 03:40:05;;;;;;;3.53;3.23;;;6.40;51.30;;;;;;5094729;28;20684;-67
2020/12/28 03:42:31;;;;;;;3.57;3.20;;;6.40;51.30;;;;;;5095014;28;20208;-67
2020/12/28 03:44:57;;;;;;;3.60;3.30;;;6.50;51.30;;;;;;5094053;28;20749;-67
2020/12/28 03:47:25;;;;;;;3.63;3.33;;;6.50;51.30;;;;;;5094892;28;20203;-67
2020/12/28 03:49:51;;;;;;;3.60;3.30;;;6.50;51.30;;;;;;5094139;28;20200;-67
2020/12/28 03:52:17;;;;;;;3.57;3.27;;;6.50;51.30;;;;;;5087730;28;20208;-67
2020/12/28 03:54:46;;;;;;;3.80;3.50;;;6.60;51.30;;;;;;5094894;28;20196;-69
2020/12/28 03:57:13;;;;;;;3.50;3.20;;;6.60;51.20;;;;;;5093147;28;20223;-67
2020/12/28 03:59:39;;;;;;;3.97;3.63;;;6.60;51.20;;;;;;5096028;28;20208;-66
2020/12/28 04:02:06;;;;;;;4.20;3.53;;;6.70;51.10;;;;;;5089191;28;20262;-67
2020/12/28 04:04:33;;;;;;;3.47;3.17;;;6.70;51.10;;;;;;5092492;28;20254;-68
2020/12/28 04:07:00;;;;;;;4.13;3.73;;;6.70;51.00;;;;;;5093961;28;20211;-67
2020/12/28 04:09:26;;;;;;;3.83;3.53;;;6.70;51.00;;;;;;5094863;28;20219;-67
2020/12/28 04:11:53;;;;;;;4.10;3.80;;;6.70;51.00;;;;;;5094428;28;20199;-67
2020/12/28 04:14:19;;;;;;;4.00;3.60;;;6.70;51.10;;;;;;5093815;28;20269;-66
2020/12/28 04:16:45;;;;;;;4.50;4.10;;;6.70;51.10;;;;;;5093338;28;20301;-67
2020/12/28 04:19:12;;;;;;;4.37;3.97;;;6.70;51.10;;;;;;5093334;28;20199;-67
2020/12/28 04:21:39;;;;;;;3.93;3.63;;;6.70;51.10;;;;;;5096001;28;20257;-68
2020/12/28 04:24:05;;;;;;;4.00;3.60;;;6.70;51.00;;;;;;5093576;28;20227;-67
2020/12/28 04:26:32;;;;;;;4.30;3.90;;;6.60;51.00;;;;;;5093169;28;20564;-67
2020/12/28 04:28:58;;;;;;;4.60;4.20;;;6.60;51.00;;;;;;5095113;28;20220;-66
2020/12/28 04:31:25;;;;;;;3.93;3.60;;;6.60;50.90;;;;;;5093575;28;20219;-67
2020/12/28 04:33:51;;;;;;;4.70;4.13;;;6.50;50.90;;;;;;5093677;28;20257;-67
2020/12/28 04:36:17;;;;;;;4.07;3.67;;;6.50;50.90;;;;;;5095625;28;20645;-66
2020/12/28 04:38:45;;;;;;;3.83;3.53;;;6.50;51.00;;;;;;5093651;28;20473;-67
2020/12/28 04:41:11;;;;;;;4.30;3.90;;;6.50;51.00;;;;;;5091508;28;20544;-66
2020/12/28 04:43:38;;;;;;;4.23;3.83;;;6.40;51.00;;;;;;5093747;28;20247;-67
2020/12/28 04:46:07;;;;;;;4.63;4.13;;;6.40;51.10;;;;;;5091518;28;20203;-67
2020/12/28 04:48:34;;;;;;;3.77;3.47;;;6.40;51.10;;;;;;5094637;28;20548;-67
2020/12/28 04:51:01;;;;;;;5.30;3.67;;;6.40;51.10;;;;;;5093038;28;20210;-67
2020/12/28 04:53:29;;;;;;;3.67;3.37;;;6.40;51.20;;;;;;5096395;28;20230;-67
2020/12/28 04:55:58;;;;;;;4.00;3.60;;;6.30;51.20;;;;;;5092324;28;20215;-68
2020/12/28 04:58:25;;;;;;;3.57;3.27;;;6.40;51.30;;;;;;5093874;28;20243;-67
2020/12/28 05:01:01;;;;;;;4.60;4.10;;;6.30;51.30;;;;;;5091532;28;20208;-67
2020/12/28 05:03:28;;;;;;;4.13;3.83;;;6.40;51.40;;;;;;5092098;28;20329;-67
2020/12/28 05:05:56;;;;;;;5.03;4.53;;;6.40;51.30;;;;;;5091897;28;20200;-67
2020/12/28 05:08:24;;;;;;;4.57;4.17;;;6.40;51.20;;;;;;5090904;28;20200;-67
2020/12/28 05:10:52;;;;;;;4.47;4.07;;;6.40;51.20;;;;;;5091038;28;20246;-67
2020/12/28 05:13:20;;;;;;;4.30;3.90;;;6.30;51.10;;;;;;5090770;28;20452;-67
2020/12/28 05:15:51;;;;;;;3.67;3.37;;;6.40;51.20;;;;;;5088547;28;20228;-67
2020/12/28 05:18:19;;;;;;;4.20;3.40;;;6.30;51.20;;;;;;5093075;28;20224;-66
2020/12/28 05:20:48;;;;;;;5.33;3.57;;;6.30;51.30;;;;;;5093556;28;20202;-67
2020/12/28 05:23:16;;;;;;;4.10;3.70;;;6.30;51.30;;;;;;5097657;28;20234;-66
2020/12/28 05:25:45;;;;;;;4.00;3.63;;;6.30;51.30;;;;;;5095985;28;20594;-67
2020/12/28 05:28:17;;;;;;;4.30;3.77;;;6.30;51.20;;;;;;5096034;28;20200;-66
2020/12/28 05:30:45;;;;;;;3.60;3.30;;;6.30;51.00;;;;;;5094713;28;20215;-67
2020/12/28 05:33:13;;;;;;;4.23;3.53;;;6.20;51.00;;;;;;5098202;28;20264;-66
2020/12/28 05:35:41;;;;;;;4.20;3.80;;;6.20;51.10;;;;;;5096320;28;20252;-67
2020/12/28 05:38:09;;;;;;;3.53;3.23;;;6.20;51.20;;;;;;5097662;28;20584;-66
2020/12/28 05:40:37;;;;;;;4.53;3.07;;;6.30;51.20;;;;;;5097211;28;20215;-68
2020/12/28 05:43:04;;;;;;;2.80;2.60;;;6.20;51.10;;;;;;5092155;28;20246;-67
2020/12/28 05:45:32;;;;;;;2.97;2.77;;;6.20;51.20;;;;;;5095668;28;20220;-68
2020/12/28 05:48:01;;;;;;;3.07;2.77;;;6.30;51.20;;;;;;5095378;28;20252;-67
2020/12/28 05:50:30;;;;;;;3.33;2.63;;;6.30;51.10;;;;;;5095292;28;20204;-67
2020/12/28 05:52:59;;;;;;;2.57;2.37;;;6.40;51.30;;;;;;5093710;28;20919;-67
2020/12/28 05:55:26;;;;;;;4.17;3.10;;;6.40;51.30;;;;;;5096047;28;20821;-69
2020/12/28 05:57:55;;;;;;;3.47;3.17;;;6.50;51.30;;;;;;5095203;28;20222;-67
2020/12/28 06:00:22;;;;;;;3.23;2.93;;;6.50;51.30;;;;;;5094929;28;20199;-67
2020/12/28 06:02:49;;;;;;;3.20;2.87;;;6.50;51.30;;;;;;5096818;28;20228;-67
2020/12/28 06:05:19;;;;;;;3.37;2.90;;;6.60;51.20;;;;;;5096801;28;20204;-66
2020/12/28 06:07:46;;;;;;;3.50;3.20;;;6.70;51.20;;;;;;5096694;28;20292;-66
2020/12/28 06:10:15;;;;;;;3.33;3.03;;;6.70;51.20;;;;;;5094674;28;20782;-67
2020/12/28 06:12:42;;;;;;;3.63;3.33;;;6.70;51.20;;;;;;5097170;28;20230;-68
2020/12/28 06:15:19;;;;;;;6.67;3.83;;;6.70;51.30;;;;;;5094280;28;20265;-67
2020/12/28 06:17:45;;;;;;;3.77;3.33;;;6.70;51.20;;;;;;5094719;28;20220;-66
2020/12/28 06:20:12;;;;;;;3.60;3.30;;;6.70;51.20;;;;;;5093842;28;20207;-67
2020/12/28 06:22:41;;;;;;;3.77;3.47;;;6.70;51.20;;;;;;5097786;28;20224;-67
2020/12/28 06:25:12;;;;;;;4.17;3.77;;;6.70;51.20;;;;;;5094843;28;20212;-67
2020/12/28 06:27:41;;;;;;;4.70;3.57;;;6.70;51.30;;;;;;5093387;28;20215;-67
2020/12/28 06:30:12;;;;;;;4.00;3.60;;;6.70;51.30;;;;;;5094127;28;20227;-67
2020/12/28 06:32:40;;;;;;;3.77;3.47;;;6.70;51.40;;;;;;5096024;28;20240;-66
2020/12/28 06:35:10;;;;;;;4.20;3.80;;;6.70;51.40;;;;;;5092921;28;20265;-66
2020/12/28 06:37:43;;;;;;;4.20;3.80;;;6.60;52.00;;;;;;5097562;28;20224;-67
2020/12/28 06:40:12;;;;;;;3.47;3.13;;;6.60;51.30;;;;;;5097090;28;20700;-67
2020/12/28 06:42:39;;;;;;;3.53;3.23;;;6.60;51.30;;;;;;5095394;28;20776;-66
2020/12/28 06:45:14;;;;;;;3.50;3.20;;;6.60;51.40;;;;;;5095644;28;20204;-67
2020/12/28 06:47:42;;;;;;;3.80;3.30;;;6.50;51.40;;;;;;5093921;28;20203;-67
2020/12/28 06:50:09;;;;;;;3.60;3.30;;;6.50;51.40;;;;;;5095105;28;20215;-66
2020/12/28 06:52:36;;;;;;;3.83;3.43;;;6.50;51.40;;;;;;5095379;28;20207;-66
2020/12/28 06:55:11;;;;;;;3.33;3.10;;;6.50;51.50;;;;;;5096189;28;20212;-66
2020/12/28 06:57:38;;;;;;;3.47;3.00;;;6.50;51.50;;;;;;5092822;28;20232;-67
2020/12/28 07:00:11;;;;;;;3.73;3.43;;;6.50;51.50;;;;;;5092538;28;20196;-67
2020/12/28 07:02:38;;;;;;;3.53;3.20;;;6.60;51.50;;;;;;5093340;28;20561;-67
2020/12/28 07:05:05;;;;;;;4.47;3.33;;;6.60;51.40;;;;;;5093663;28;20203;-66
2020/12/28 07:07:42;;;;;;;3.57;3.27;;;6.50;51.40;;;;;;5096687;28;20258;-67
2020/12/28 07:10:16;;;;;;;4.10;3.70;;;6.60;51.40;;;;;;5095320;28;20208;-68
2020/12/28 07:12:43;;;;;;;3.87;3.57;;;6.60;51.50;;;;;;5095519;28;20720;-67
2020/12/28 07:15:10;;;;;;;3.33;3.03;;;6.60;51.40;;;;;;5095738;28;20212;-66
2020/12/28 07:17:36;;;;;;;4.27;3.40;;;6.60;51.30;;;;;;5095018;28;20227;-68
2020/12/28 07:20:06;;;;;;;3.67;3.37;;;6.60;51.40;;;;;;5095101;28;20196;-66
2020/12/28 07:22:36;;;;;;;3.43;3.13;;;6.70;51.50;;;;;;5095512;28;20212;-66
2020/12/28 07:25:04;;;;;;;4.20;3.27;;;6.70;51.50;;;;;;5091624;28;20266;-66
2020/12/28 07:27:32;;;;;;;3.57;3.27;;;6.70;51.50;;;;;;5093191;28;20212;-67
2020/12/28 07:29:58;;;;;;;4.00;3.60;;;6.70;51.40;;;;;;5094907;28;20207;-68
2020/12/28 07:32:25;;;;;;;3.93;3.53;;;6.80;51.40;;;;;;5092776;28;20201;-66
2020/12/28 07:34:54;;;;;;;4.33;3.23;;;6.80;51.30;;;;;;5095494;28;20208;-67
2020/12/28 07:37:21;;;;;;;3.27;3.00;;;6.80;51.30;;;;;;5093641;28;20228;-66
2020/12/28 07:39:49;;;;;;;4.53;2.97;;;6.80;51.30;;;;;;5096549;28;20703;-66
2020/12/28 07:42:21;;;;;;;3.67;3.27;;;6.90;51.30;;;;;;5094702;28;20232;-67
2020/12/28 07:44:54;;;;;;;3.60;3.30;;;6.90;51.20;;;;;;5095407;28;20274;-65
2020/12/28 07:47:30;;;;;;;4.50;3.30;;;7.00;51.10;;;;;;5094375;28;20669;-66
2020/12/28 07:50:02;;;;;;;3.57;3.10;;;7.00;50.90;;;;;;5093788;28;20215;-67
2020/12/28 07:52:32;;;;;;;3.10;2.90;;;7.10;50.60;;;;;;5093296;28;20744;-67
2020/12/28 07:55:08;;;;;;;4.27;3.53;;;7.10;50.50;;;;;;5094373;28;23041;-66
2020/12/28 07:57:52;;;;;;;3.03;2.83;;;7.10;50.40;;;;;;5093668;28;20679;-66
2020/12/28 08:00:25;;;;;;;7.87;5.60;;;7.20;50.40;;;;;;5089789;28;21075;-67
2020/12/28 08:03:15;;;;;;;4.03;3.70;;;7.20;50.50;;;;;;5091370;28;20231;-66
2020/12/28 08:05:44;;;;;;;4.70;3.33;;;7.20;50.40;;;;;;5091143;28;20212;-67
2020/12/28 08:08:21;;;;;;;3.43;3.00;;;7.30;50.40;;;;;;5092612;28;20256;-67
2020/12/28 08:10:53;;;;;;;3.50;3.20;;;7.30;50.20;;;;;;5092337;28;20207;-66
2020/12/28 08:13:26;;;;;;;3.33;3.00;;;7.30;50.20;;;;;;5093127;28;20231;-67
2020/12/28 08:15:54;;;;;;;3.53;3.23;;;7.30;50.10;;;;;;5090686;28;20200;-67
2020/12/28 08:18:21;;;;;;;3.17;2.87;;;7.30;50.10;;;;;;5091595;28;20215;-67
2020/12/28 08:20:57;;;;;;;3.23;3.00;;;7.30;50.00;;;;;;5092077;28;20219;-67
2020/12/28 08:23:28;;;;;;;3.97;3.10;;;7.30;49.70;;;;;;5092201;28;20242;-68
2020/12/28 08:25:55;;;;;;;3.47;3.17;;;7.40;49.70;;;;;;5092214;28;22000;-68
2020/12/28 08:28:22;;;;;;;3.40;3.10;;;7.40;49.70;;;;;;5089467;28;20208;-68
2020/12/28 08:30:49;;;;;;;3.80;3.50;;;7.30;49.50;;;;;;5088565;28;20681;-67
2020/12/28 08:33:18;;;;;;;3.57;3.27;;;7.30;49.90;;;;;;5086882;28;20243;-66
2020/12/28 08:35:50;;;;;;;3.70;3.40;;;7.30;49.30;;;;;;5095571;28;20228;-68
2020/12/28 08:38:17;;;;;;;4.40;3.20;;;7.30;49.10;;;;;;5095141;28;20285;-69
2020/12/28 08:40:54;;;;;;;2.90;2.70;;;7.20;49.20;;;;;;5092323;28;20669;-69
2020/12/28 08:43:21;;;;;;;3.70;2.90;;;7.20;49.20;;;;;;5096607;28;20287;-68
2020/12/28 08:45:47;;;;;;;3.40;3.10;;;7.20;49.50;;;;;;5094139;28;20215;-67
2020/12/28 08:48:22;;;;;;;2.90;2.70;;;7.20;49.60;;;;;;5097305;28;20280;-67
2020/12/28 08:50:49;;;;;;;4.07;3.20;;;7.30;49.50;;;;;;5092706;28;20203;-66
2020/12/28 08:53:22;;;;;;;4.30;3.17;;;7.30;49.40;;;;;;5096146;28;20688;-68
2020/12/28 08:56:01;;;;;;;3.53;3.20;;;7.40;48.90;;;;;;5099155;28;20280;-67
2020/12/28 08:58:28;;;;;;;2.77;2.40;;;7.40;48.60;;;;;;5098609;28;20235;-68
2020/12/28 09:00:55;;;;;;;3.03;2.73;;;7.40;49.50;;;;;;5096623;28;20219;-66
2020/12/28 09:03:22;;;;;;;2.60;2.40;;;7.50;48.90;;;;;;5098077;28;20317;-67
2020/12/28 09:05:48;;;;;;;2.60;2.40;;;7.50;49.00;;;;;;5099873;28;20781;-66
2020/12/28 09:08:15;;;;;;;2.83;2.53;;;7.50;49.00;;;;;;5096863;28;20197;-66
2020/12/28 09:10:41;;;;;;;3.30;3.10;;;7.60;48.80;;;;;;5095754;28;20211;-68
2020/12/28 09:13:08;;;;;;;3.80;3.40;;;7.60;48.70;;;;;;5096678;28;20852;-67
2020/12/28 09:15:34;;;;;;;3.20;2.90;;;7.60;48.60;;;;;;5095574;28;20199;-67
2020/12/28 09:18:01;;;;;;;3.23;2.83;;;7.70;48.50;;;;;;5100355;28;20223;-66
2020/12/28 09:20:28;;;;;;;3.67;3.13;;;7.70;48.30;;;;;;5099527;28;20212;-67
2020/12/28 09:22:54;;;;;;;2.83;2.60;;;7.70;48.40;;;;;;5095599;28;20715;-67
2020/12/28 09:25:21;;;;;;;3.60;3.30;;;7.70;48.50;;;;;;5096365;28;20255;-67
2020/12/28 09:27:47;;;;;;;3.20;2.90;;;7.70;48.60;;;;;;5096939;28;20201;-67
2020/12/28 09:30:14;;;;;;;4.43;2.83;;;7.70;48.60;;;;;;5098867;28;20665;-67
2020/12/28 09:32:41;;;;;;;3.77;3.00;;;7.80;48.60;;;;;;5095141;28;20261;-67
2020/12/28 09:35:08;;;;;;;3.13;2.93;;;7.80;48.60;;;;;;5094589;28;20215;-67
2020/12/28 09:37:35;;;;;;;3.27;2.80;;;7.90;48.50;;;;;;5096755;28;20306;-67
2020/12/28 09:40:03;;;;;;;3.03;2.83;;;7.90;48.40;;;;;;5100367;28;20204;-68
2020/12/28 09:42:29;;;;;;;3.20;3.00;;;8.00;48.60;;;;;;5096351;28;20799;-67
2020/12/28 09:44:56;;;;;;;3.90;3.50;;;8.00;48.60;;;;;;5096230;28;20196;-66
2020/12/28 09:47:22;;;;;;;3.60;3.30;;;8.00;48.50;;;;;;5092621;28;20207;-68
2020/12/28 09:49:49;;;;;;;3.80;3.50;;;8.10;48.40;;;;;;5096724;28;20201;-68
2020/12/28 09:52:15;;;;;;;3.50;3.20;;;8.10;48.50;;;;;;5097024;28;20218;-67
2020/12/28 09:54:42;;;;;;;3.63;3.33;;;8.10;48.50;;;;;;5095806;28;20223;-68
2020/12/28 09:57:09;;;;;;;4.30;3.27;;;8.20;48.50;;;;;;5092768;28;20224;-67
2020/12/28 09:59:39;;;;;;;3.63;3.33;;;8.20;48.60;;;;;;5095318;28;20673;-67
2020/12/28 10:02:07;;;;;;;3.50;3.20;;;8.20;48.50;;;;;;5086012;28;20204;-67
2020/12/28 10:04:34;;;;;;;3.63;3.20;;;8.30;48.50;;;;;;5098485;28;20304;-67
2020/12/28 10:07:00;;;;;;;4.73;3.43;;;8.30;48.30;;;;;;5098393;28;20215;-67
2020/12/28 10:09:27;;;;;;;3.67;3.37;;;8.30;48.30;;;;;;5098803;28;20207;-67
2020/12/28 10:11:58;;;;;;;3.20;3.00;;;8.40;48.30;;;;;;5097202;28;20210;-68
2020/12/28 10:14:24;;;;;;;3.17;2.97;;;8.40;48.10;;;;;;5096892;28;20252;-68
2020/12/28 10:16:51;;;;;;;3.57;3.27;;;8.50;48.00;;;;;;5095989;28;20279;-68
2020/12/28 10:19:21;;;;;;;3.70;3.40;;;8.50;48.00;;;;;;5099220;27;20227;-68
2020/12/28 10:21:49;;;;;;;3.87;3.57;;;8.50;47.90;;;;;;5096383;28;20530;-68
2020/12/28 10:24:16;;;;;;;3.20;3.00;;;8.50;47.90;;;;;;5096490;28;20220;-68
2020/12/28 10:26:42;;;;;;;4.83;3.90;;;8.50;47.90;;;;;;5096025;28;20200;-68
2020/12/28 10:29:09;;;;;;;4.13;3.67;;;8.50;48.00;;;;;;5096981;28;20222;-67
2020/12/28 10:31:35;;;;;;;3.60;3.30;;;8.50;48.00;;;;;;5097918;28;20222;-68
2020/12/28 10:34:02;;;;;;;3.57;3.27;;;8.50;48.00;;;;;;5097156;28;20239;-69
2020/12/28 10:36:28;;;;;;;6.80;3.70;;;8.50;48.00;;;;;;5100069;28;20299;-68
2020/12/28 10:38:57;;;;;;;4.40;4.10;;;8.60;48.00;;;;;;5099956;28;20228;-66
2020/12/28 10:41:25;;;;;;;4.13;3.77;;;8.60;48.00;;;;;;5097727;28;20298;-67
2020/12/28 10:43:52;;;;;;;4.17;3.80;;;8.60;48.00;;;;;;5099789;28;20763;-67
2020/12/28 10:46:19;;;;;;;4.93;3.73;;;8.60;48.00;;;;;;5098726;28;20274;-68
2020/12/28 10:48:46;;;;;;;4.13;3.33;;;8.60;47.90;;;;;;5100234;28;20293;-67
2020/12/28 10:51:13;;;;;;;3.50;3.13;;;8.60;47.90;;;;;;5096393;28;20268;-67
2020/12/28 10:53:40;;;;;;;3.60;3.30;;;8.60;47.80;;;;;;5099504;28;20230;-68
2020/12/28 10:56:07;;;;;;;3.50;3.20;;;8.60;47.60;;;;;;5093206;28;20209;-64
2020/12/28 10:58:33;;;;;;;4.10;3.43;;;8.60;47.50;;;;;;5089059;28;20230;-66
2020/12/28 11:01:00;;;;;;;3.57;3.27;;;8.60;47.60;;;;;;5095336;28;20701;-65
2020/12/28 11:03:27;;;;;;;3.83;3.43;;;8.60;47.70;;;;;;5095566;28;20295;-66
2020/12/28 11:05:54;;;;;;;6.00;3.53;;;8.60;47.70;;;;;;5095848;28;20250;-66
2020/12/28 11:08:20;;;;;;;4.10;3.70;;;8.50;47.70;;;;;;5091958;28;20219;-67
2020/12/28 11:10:46;;;;;;;4.87;4.47;;;8.50;47.90;;;;;;5094964;28;20602;-67
2020/12/28 11:13:13;;;;;;;4.27;3.67;;;8.50;48.00;;;;;;5098737;28;20231;-65
2020/12/28 11:15:39;;;;;;;5.00;4.13;;;8.50;48.10;;;;;;5095040;28;20208;-66
2020/12/28 11:18:06;;;;;;;4.63;4.23;;;8.50;48.20;;;;;;5095274;28;20614;-65
2020/12/28 11:20:33;;;;;;;5.37;4.17;;;8.40;48.20;;;;;;5097527;28;20199;-67
2020/12/28 11:22:59;;;;;;;5.03;4.57;;;8.40;48.20;;;;;;5095509;28;20224;-64
2020/12/28 11:25:26;;;;;;;4.83;4.43;;;8.40;48.40;;;;;;5094548;28;20212;-63
2020/12/28 11:27:52;;;;;;;5.33;4.20;;;8.30;48.40;;;;;;5096996;28;20221;-67
2020/12/28 11:30:19;;;;;;;4.17;3.83;;;8.30;48.40;;;;;;5095015;28;20757;-67
2020/12/28 11:32:45;;;;;;;4.60;4.10;;;8.30;48.50;;;;;;5093026;28;20247;-70
2020/12/28 11:35:11;;;;;;;4.47;4.10;;;8.30;48.50;;;;;;5094024;28;20223;-69
2020/12/28 11:37:39;;;;;;;5.20;4.70;;;8.30;48.60;;;;;;5094514;28;20254;-68
2020/12/28 11:40:05;;;;;;;5.43;4.10;;;8.30;48.70;;;;;;5097409;28;20200;-69
2020/12/28 11:42:32;;;;;;;4.33;3.93;;;8.20;48.80;;;;;;5097702;28;20207;-70
2020/12/28 11:44:59;;;;;;;5.40;4.90;;;8.20;48.80;;;;;;5095739;28;20200;-68
2020/12/28 11:47:26;;;;;;;5.83;4.70;;;8.20;49.40;;;;;;5092049;28;20287;-67
2020/12/28 11:49:52;;;;;;;4.63;4.13;;;8.20;48.60;;;;;;5092653;28;20203;-66
2020/12/28 11:52:20;;;;;;;4.60;4.20;;;8.20;48.70;;;;;;5097148;28;20575;-67
2020/12/28 11:54:48;;;;;;;4.77;4.37;;;8.20;48.80;;;;;;5092587;28;20229;-69
2020/12/28 11:57:14;;;;;;;5.80;4.27;;;8.20;48.80;;;;;;5093389;28;20207;-68
2020/12/28 11:59:40;;;;;;;4.20;3.87;;;8.20;48.90;;;;;;5095264;28;20572;-69
2020/12/28 12:02:07;;;;;;;4.60;4.17;;;8.20;48.90;;;;;;5092898;28;20207;-69
2020/12/28 12:04:49;;;;;;;6.10;4.40;;;8.20;48.90;;;;;;5095367;28;20231;-67
2020/12/28 12:07:17;;;;;;;4.50;4.10;;;8.20;49.00;;;;;;5097516;28;20502;-68
2020/12/28 12:09:44;;;;;;;5.00;4.43;;;8.20;49.00;;;;;;5091097;28;20196;-69
2020/12/28 12:12:12;;;;;;;5.20;4.20;;;8.20;49.00;;;;;;5086562;28;20224;-70
2020/12/28 12:14:39;;;;;;;4.80;4.40;;;8.20;49.00;;;;;;5094846;28;20704;-70
2020/12/28 12:17:05;;;;;;;5.40;4.47;;;8.20;49.70;;;;;;5096079;28;20279;-72
2020/12/28 12:19:32;;;;;;;5.07;4.33;;;8.20;49.00;;;;;;5096996;28;20224;-70
2020/12/28 12:21:59;;;;;;;4.60;4.20;;;8.20;49.00;;;;;;5094977;28;20230;-71
2020/12/28 12:24:25;;;;;;;4.53;4.13;;;8.20;49.00;;;;;;5094173;28;20232;-72
2020/12/28 12:26:52;;;;;;;4.60;4.00;;;8.20;49.00;;;;;;5095286;28;21454;-72
2020/12/28 12:29:19;;;;;;;4.47;4.10;;;8.30;49.10;;;;;;5094987;28;20204;-71
2020/12/28 12:31:49;;;;;;;5.10;4.60;;;8.30;49.10;;;;;;5096457;28;20219;-70
2020/12/28 12:34:15;;;;;;;4.60;4.20;;;8.30;49.20;;;;;;5090506;28;20244;-70
2020/12/28 12:36:42;;;;;;;4.70;4.30;;;8.30;49.20;;;;;;5089063;28;20213;-72
2020/12/28 12:39:08;;;;;;;5.13;4.63;;;8.30;49.20;;;;;;5092553;28;20236;-66
2020/12/28 12:41:35;;;;;;;5.60;5.00;;;8.30;49.20;;;;;;5091430;28;20210;-69
2020/12/28 12:44:01;;;;;;;4.50;4.10;;;8.30;49.20;;;;;;5092691;28;20281;-68
2020/12/28 12:46:28;;;;;;;4.53;4.13;;;8.40;49.30;;;;;;5093042;28;20261;-68
2020/12/28 12:48:55;;;;;;;5.43;4.93;;;8.40;49.10;;;;;;5090990;28;20299;-68
2020/12/28 12:51:22;;;;;;;4.93;4.47;;;8.40;49.00;;;;;;5092604;28;20288;-66
2020/12/28 12:53:49;;;;;;;5.40;5.00;;;8.40;49.10;;;;;;5093783;28;20724;-67
2020/12/28 12:56:20;;;;;;;4.90;4.40;;;8.40;49.00;;;;;;5092543;28;20207;-67
2020/12/28 12:58:47;;;;;;;4.63;4.23;;;8.40;49.10;;;;;;5092467;28;20708;-69
2020/12/28 13:01:14;;;;;;;6.20;5.17;;;8.40;49.10;;;;;;5091063;28;20228;-67